Terminal Aerodrome Forecast
Issued by NWS

Home | Current Version | Previous Version | Text Only | Print | Product List | Glossary On
Versions: 1 2 3 4 5 6 7 8 9 10 11 12 13
869
FTUS46 KMTR 301727
TAFSJC
TAF
KSJC 301727Z 3018/3118 31015G23KT P6SM FEW030
     FM302100 31026G31KT P6SM FEW040 SCT200
     FM310400 31012KT P6SM FEW015 SCT200
     FM310600 31009KT P6SM FEW015 SCT200
     FM311200 30012KT P6SM SKC
     FM311700 31013G20KT P6SM FEW250=

USA.gov is the U.S. government's official web portal to all federal, state and local government web resources and services.